sensor_id;sensor_type;location;lat;lon;timestamp;P1;durP1;ratioP1;P2;durP2;ratioP2
64387;SDS011;50709;52.648;4.764;2024-03-07T00:00:34;36.85;;;18.85;;
64387;SDS011;50709;52.648;4.764;2024-03-07T00:03:20;30.33;;;15.95;;
64387;SDS011;50709;52.648;4.764;2024-03-07T00:05:45;36.70;;;17.13;;
64387;SDS011;50709;52.648;4.764;2024-03-07T00:08:31;32.53;;;16.65;;
64387;SDS011;50709;52.648;4.764;2024-03-07T00:10:56;35.50;;;17.25;;
64387;SDS011;50709;52.648;4.764;2024-03-07T00:13:22;36.30;;;17.65;;
64387;SDS011;50709;52.648;4.764;2024-03-07T00:15:47;33.45;;;15.60;;
64387;SDS011;50709;52.648;4.764;2024-03-07T00:18:12;28.98;;;15.75;;
64387;SDS011;50709;52.648;4.764;2024-03-07T00:20:40;33.38;;;16.23;;
64387;SDS011;50709;52.648;4.764;2024-03-07T00:23:05;33.67;;;16.90;;
64387;SDS011;50709;52.648;4.764;2024-03-07T00:25:31;37.75;;;17.63;;
64387;SDS011;50709;52.648;4.764;2024-03-07T00:27:57;34.72;;;17.20;;
64387;SDS011;50709;52.648;4.764;2024-03-07T00:30:27;33.78;;;16.92;;
64387;SDS011;50709;52.648;4.764;2024-03-07T00:33:13;32.53;;;16.45;;
64387;SDS011;50709;52.648;4.764;2024-03-07T00:35:39;36.05;;;16.73;;
64387;SDS011;50709;52.648;4.764;2024-03-07T00:38:04;32.83;;;17.15;;
64387;SDS011;50709;52.648;4.764;2024-03-07T00:40:32;33.80;;;16.75;;
64387;SDS011;50709;52.648;4.764;2024-03-07T00:42:59;35.40;;;17.05;;
64387;SDS011;50709;52.648;4.764;2024-03-07T00:45:26;37.15;;;18.08;;
64387;SDS011;50709;52.648;4.764;2024-03-07T00:47:52;31.33;;;16.15;;
64387;SDS011;50709;52.648;4.764;2024-03-07T00:50:18;32.03;;;16.60;;
64387;SDS011;50709;52.648;4.764;2024-03-07T00:52:43;36.42;;;16.38;;
64387;SDS011;50709;52.648;4.764;2024-03-07T00:55:09;33.15;;;16.50;;
64387;SDS011;50709;52.648;4.764;2024-03-07T00:57:34;33.58;;;17.23;;
64387;SDS011;50709;52.648;4.764;2024-03-07T01:00:00;32.78;;;16.75;;
64387;SDS011;50709;52.648;4.764;2024-03-07T01:02:25;36.47;;;17.65;;
64387;SDS011;50709;52.648;4.764;2024-03-07T01:04:54;35.90;;;17.40;;
64387;SDS011;50709;52.648;4.764;2024-03-07T01:07:21;38.30;;;17.13;;
64387;SDS011;50709;52.648;4.764;2024-03-07T01:09:48;36.97;;;17.25;;
64387;SDS011;50709;52.648;4.764;2024-03-07T01:12:15;35.90;;;17.73;;
64387;SDS011;50709;52.648;4.764;2024-03-07T01:14:42;35.25;;;17.55;;
64387;SDS011;50709;52.648;4.764;2024-03-07T01:17:07;40.35;;;18.80;;
64387;SDS011;50709;52.648;4.764;2024-03-07T01:19:34;36.38;;;16.95;;
64387;SDS011;50709;52.648;4.764;2024-03-07T01:22:00;34.70;;;16.42;;
64387;SDS011;50709;52.648;4.764;2024-03-07T01:24:25;32.70;;;16.15;;
64387;SDS011;50709;52.648;4.764;2024-03-07T01:26:51;31.90;;;16.35;;
64387;SDS011;50709;52.648;4.764;2024-03-07T01:29:16;36.72;;;18.15;;
64387;SDS011;50709;52.648;4.764;2024-03-07T01:31:42;40.92;;;17.45;;
64387;SDS011;50709;52.648;4.764;2024-03-07T01:34:09;37.55;;;18.10;;
64387;SDS011;50709;52.648;4.764;2024-03-07T01:36:34;36.17;;;17.75;;
64387;SDS011;50709;52.648;4.764;2024-03-07T01:39:00;34.60;;;16.65;;
64387;SDS011;50709;52.648;4.764;2024-03-07T01:41:26;33.78;;;17.35;;
64387;SDS011;50709;52.648;4.764;2024-03-07T01:43:52;33.80;;;16.50;;
64387;SDS011;50709;52.648;4.764;2024-03-07T01:46:18;33.03;;;16.38;;
64387;SDS011;50709;52.648;4.764;2024-03-07T01:48:44;31.67;;;16.77;;
64387;SDS011;50709;52.648;4.764;2024-03-07T01:51:35;33.80;;;17.45;;
64387;SDS011;50709;52.648;4.764;2024-03-07T01:54:03;36.22;;;16.63;;
64387;SDS011;50709;52.648;4.764;2024-03-07T01:56:33;37.30;;;16.30;;
64387;SDS011;50709;52.648;4.764;2024-03-07T01:59:38;33.28;;;16.85;;
64387;SDS011;50709;52.648;4.764;2024-03-07T02:02:04;37.00;;;17.17;;
64387;SDS011;50709;52.648;4.764;2024-03-07T02:04:30;35.85;;;17.52;;
64387;SDS011;50709;52.648;4.764;2024-03-07T02:06:56;35.00;;;16.33;;
64387;SDS011;50709;52.648;4.764;2024-03-07T02:09:21;33.65;;;16.48;;
64387;SDS011;50709;52.648;4.764;2024-03-07T02:11:47;38.38;;;17.30;;
64387;SDS011;50709;52.648;4.764;2024-03-07T02:14:14;34.35;;;17.02;;
64387;SDS011;50709;52.648;4.764;2024-03-07T02:16:39;34.22;;;16.67;;
64387;SDS011;50709;52.648;4.764;2024-03-07T02:19:07;40.95;;;17.50;;
64387;SDS011;50709;52.648;4.764;2024-03-07T02:21:36;38.72;;;17.10;;
64387;SDS011;50709;52.648;4.764;2024-03-07T02:24:04;35.88;;;16.48;;
64387;SDS011;50709;52.648;4.764;2024-03-07T02:26:30;39.78;;;18.73;;
64387;SDS011;50709;52.648;4.764;2024-03-07T02:28:55;35.58;;;17.42;;
64387;SDS011;50709;52.648;4.764;2024-03-07T02:31:22;40.08;;;18.08;;
64387;SDS011;50709;52.648;4.764;2024-03-07T02:34:00;41.15;;;18.33;;
64387;SDS011;50709;52.648;4.764;2024-03-07T02:36:27;37.92;;;18.30;;
64387;SDS011;50709;52.648;4.764;2024-03-07T02:38:54;38.85;;;18.40;;
64387;SDS011;50709;52.648;4.764;2024-03-07T02:41:39;38.35;;;19.20;;
64387;SDS011;50709;52.648;4.764;2024-03-07T02:44:04;39.13;;;19.08;;
64387;SDS011;50709;52.648;4.764;2024-03-07T02:46:30;40.22;;;19.30;;
64387;SDS011;50709;52.648;4.764;2024-03-07T02:48:57;43.00;;;19.75;;
64387;SDS011;50709;52.648;4.764;2024-03-07T02:51:23;40.53;;;20.20;;
64387;SDS011;50709;52.648;4.764;2024-03-07T02:53:49;38.42;;;17.23;;
64387;SDS011;50709;52.648;4.764;2024-03-07T02:56:15;39.63;;;19.05;;
64387;SDS011;50709;52.648;4.764;2024-03-07T02:58:40;32.00;;;17.10;;
64387;SDS011;50709;52.648;4.764;2024-03-07T03:01:06;37.80;;;17.80;;
64387;SDS011;50709;52.648;4.764;2024-03-07T03:03:32;37.65;;;17.05;;
64387;SDS011;50709;52.648;4.764;2024-03-07T03:06:18;37.95;;;18.40;;
64387;SDS011;50709;52.648;4.764;2024-03-07T03:08:46;45.90;;;23.38;;
64387;SDS011;50709;52.648;4.764;2024-03-07T03:11:12;43.30;;;20.73;;
64387;SDS011;50709;52.648;4.764;2024-03-07T03:13:39;37.70;;;19.17;;
64387;SDS011;50709;52.648;4.764;2024-03-07T03:16:05;39.95;;;20.52;;
64387;SDS011;50709;52.648;4.764;2024-03-07T03:18:52;39.38;;;19.70;;
64387;SDS011;50709;52.648;4.764;2024-03-07T03:21:17;42.13;;;20.10;;
64387;SDS011;50709;52.648;4.764;2024-03-07T03:23:43;42.33;;;19.20;;
64387;SDS011;50709;52.648;4.764;2024-03-07T03:26:29;35.47;;;17.30;;
64387;SDS011;50709;52.648;4.764;2024-03-07T03:28:59;38.55;;;19.38;;
64387;SDS011;50709;52.648;4.764;2024-03-07T03:31:26;42.40;;;21.65;;
64387;SDS011;50709;52.648;4.764;2024-03-07T03:33:51;40.30;;;20.38;;
64387;SDS011;50709;52.648;4.764;2024-03-07T03:36:38;42.00;;;20.50;;
64387;SDS011;50709;52.648;4.764;2024-03-07T03:39:05;34.78;;;18.02;;
64387;SDS011;50709;52.648;4.764;2024-03-07T03:41:32;43.65;;;20.95;;
64387;SDS011;50709;52.648;4.764;2024-03-07T03:43:57;36.78;;;18.60;;
64387;SDS011;50709;52.648;4.764;2024-03-07T03:46:50;41.75;;;18.80;;
64387;SDS011;50709;52.648;4.764;2024-03-07T03:49:15;40.42;;;19.83;;
64387;SDS011;50709;52.648;4.764;2024-03-07T03:51:43;39.80;;;19.08;;
64387;SDS011;50709;52.648;4.764;2024-03-07T03:54:08;43.63;;;20.45;;
64387;SDS011;50709;52.648;4.764;2024-03-07T03:56:34;40.05;;;20.40;;
64387;SDS011;50709;52.648;4.764;2024-03-07T03:59:00;37.35;;;18.70;;
64387;SDS011;50709;52.648;4.764;2024-03-07T04:01:26;40.50;;;20.48;;
64387;SDS011;50709;52.648;4.764;2024-03-07T04:04:11;43.33;;;20.38;;
64387;SDS011;50709;52.648;4.764;2024-03-07T04:06:41;37.90;;;18.42;;
64387;SDS011;50709;52.648;4.764;2024-03-07T04:09:08;37.60;;;18.85;;
64387;SDS011;50709;52.648;4.764;2024-03-07T04:11:33;40.33;;;18.60;;
64387;SDS011;50709;52.648;4.764;2024-03-07T04:13:59;38.17;;;18.88;;
64387;SDS011;50709;52.648;4.764;2024-03-07T04:16:26;41.22;;;21.55;;
64387;SDS011;50709;52.648;4.764;2024-03-07T04:18:52;38.33;;;19.15;;
64387;SDS011;50709;52.648;4.764;2024-03-07T04:21:20;39.70;;;19.15;;
64387;SDS011;50709;52.648;4.764;2024-03-07T04:23:46;40.63;;;18.65;;
64387;SDS011;50709;52.648;4.764;2024-03-07T04:26:11;39.65;;;18.25;;
64387;SDS011;50709;52.648;4.764;2024-03-07T04:28:39;38.95;;;19.15;;
64387;SDS011;50709;52.648;4.764;2024-03-07T04:31:05;40.53;;;19.23;;
64387;SDS011;50709;52.648;4.764;2024-03-07T04:33:32;38.17;;;18.88;;
64387;SDS011;50709;52.648;4.764;2024-03-07T04:35:57;38.67;;;19.48;;
64387;SDS011;50709;52.648;4.764;2024-03-07T04:38:23;42.28;;;19.95;;
64387;SDS011;50709;52.648;4.764;2024-03-07T04:40:51;39.38;;;19.23;;
64387;SDS011;50709;52.648;4.764;2024-03-07T04:43:18;34.78;;;17.70;;
64387;SDS011;50709;52.648;4.764;2024-03-07T04:46:04;40.00;;;19.17;;
64387;SDS011;50709;52.648;4.764;2024-03-07T04:48:31;38.08;;;18.15;;
64387;SDS011;50709;52.648;4.764;2024-03-07T04:50:57;37.95;;;18.85;;
64387;SDS011;50709;52.648;4.764;2024-03-07T04:53:24;44.30;;;20.50;;
64387;SDS011;50709;52.648;4.764;2024-03-07T04:56:09;38.00;;;19.27;;
64387;SDS011;50709;52.648;4.764;2024-03-07T04:58:36;35.10;;;16.35;;
64387;SDS011;50709;52.648;4.764;2024-03-07T05:01:24;36.10;;;19.17;;
64387;SDS011;50709;52.648;4.764;2024-03-07T05:03:52;40.05;;;18.92;;
64387;SDS011;50709;52.648;4.764;2024-03-07T05:06:17;36.35;;;17.67;;
64387;SDS011;50709;52.648;4.764;2024-03-07T05:08:46;40.60;;;19.45;;
64387;SDS011;50709;52.648;4.764;2024-03-07T05:11:32;41.05;;;19.30;;
64387;SDS011;50709;52.648;4.764;2024-03-07T05:13:59;40.67;;;21.48;;
64387;SDS011;50709;52.648;4.764;2024-03-07T05:16:31;39.42;;;19.67;;
64387;SDS011;50709;52.648;4.764;2024-03-07T05:19:33;41.08;;;19.85;;
64387;SDS011;50709;52.648;4.764;2024-03-07T05:22:01;35.25;;;18.70;;
64387;SDS011;50709;52.648;4.764;2024-03-07T05:24:29;36.65;;;19.23;;
64387;SDS011;50709;52.648;4.764;2024-03-07T05:26:55;45.55;;;20.15;;
64387;SDS011;50709;52.648;4.764;2024-03-07T05:29:23;38.08;;;20.00;;
64387;SDS011;50709;52.648;4.764;2024-03-07T05:32:25;50.72;;;24.73;;
64387;SDS011;50709;52.648;4.764;2024-03-07T05:34:53;37.72;;;19.65;;
64387;SDS011;50709;52.648;4.764;2024-03-07T05:37:19;38.17;;;20.02;;
64387;SDS011;50709;52.648;4.764;2024-03-07T05:39:47;40.00;;;19.83;;
64387;SDS011;50709;52.648;4.764;2024-03-07T05:42:13;42.35;;;21.70;;
64387;SDS011;50709;52.648;4.764;2024-03-07T05:44:40;38.00;;;17.83;;
64387;SDS011;50709;52.648;4.764;2024-03-07T05:47:09;42.72;;;22.80;;
64387;SDS011;50709;52.648;4.764;2024-03-07T05:49:35;34.50;;;18.98;;
64387;SDS011;50709;52.648;4.764;2024-03-07T05:52:05;35.65;;;17.75;;
64387;SDS011;50709;52.648;4.764;2024-03-07T05:54:35;34.17;;;18.35;;
64387;SDS011;50709;52.648;4.764;2024-03-07T05:57:01;31.92;;;19.30;;
64387;SDS011;50709;52.648;4.764;2024-03-07T05:59:27;33.78;;;18.33;;
64387;SDS011;50709;52.648;4.764;2024-03-07T06:01:56;35.00;;;18.58;;
64387;SDS011;50709;52.648;4.764;2024-03-07T06:04:25;33.72;;;17.85;;
64387;SDS011;50709;52.648;4.764;2024-03-07T06:06:52;32.55;;;18.00;;
64387;SDS011;50709;52.648;4.764;2024-03-07T06:09:17;35.58;;;18.42;;
64387;SDS011;50709;52.648;4.764;2024-03-07T06:11:52;36.35;;;18.98;;
64387;SDS011;50709;52.648;4.764;2024-03-07T06:14:17;33.42;;;17.30;;
64387;SDS011;50709;52.648;4.764;2024-03-07T06:17:03;32.50;;;16.90;;
64387;SDS011;50709;52.648;4.764;2024-03-07T06:19:28;38.30;;;20.55;;
64387;SDS011;50709;52.648;4.764;2024-03-07T06:21:56;33.78;;;18.08;;
64387;SDS011;50709;52.648;4.764;2024-03-07T06:24:21;34.88;;;19.70;;
64387;SDS011;50709;52.648;4.764;2024-03-07T06:26:48;34.83;;;18.15;;
64387;SDS011;50709;52.648;4.764;2024-03-07T06:29:24;36.97;;;20.17;;
64387;SDS011;50709;52.648;4.764;2024-03-07T06:31:52;33.83;;;19.15;;
64387;SDS011;50709;52.648;4.764;2024-03-07T06:34:19;34.92;;;19.05;;
64387;SDS011;50709;52.648;4.764;2024-03-07T06:36:45;29.33;;;17.75;;
64387;SDS011;50709;52.648;4.764;2024-03-07T06:39:10;30.25;;;16.80;;
64387;SDS011;50709;52.648;4.764;2024-03-07T06:41:36;32.80;;;18.85;;
64387;SDS011;50709;52.648;4.764;2024-03-07T06:44:02;29.83;;;17.05;;
64387;SDS011;50709;52.648;4.764;2024-03-07T06:46:28;28.75;;;16.63;;
64387;SDS011;50709;52.648;4.764;2024-03-07T06:48:54;35.03;;;18.95;;
64387;SDS011;50709;52.648;4.764;2024-03-07T06:51:21;32.90;;;18.08;;
64387;SDS011;50709;52.648;4.764;2024-03-07T06:53:47;28.00;;;16.13;;
64387;SDS011;50709;52.648;4.764;2024-03-07T06:56:13;29.92;;;17.40;;
64387;SDS011;50709;52.648;4.764;2024-03-07T06:58:40;28.20;;;16.33;;
64387;SDS011;50709;52.648;4.764;2024-03-07T07:01:07;29.92;;;16.73;;
64387;SDS011;50709;52.648;4.764;2024-03-07T07:03:35;29.10;;;16.35;;
64387;SDS011;50709;52.648;4.764;2024-03-07T07:06:02;31.08;;;16.75;;
64387;SDS011;50709;52.648;4.764;2024-03-07T07:08:27;29.80;;;16.75;;
64387;SDS011;50709;52.648;4.764;2024-03-07T07:10:55;30.15;;;17.17;;
64387;SDS011;50709;52.648;4.764;2024-03-07T07:13:21;28.60;;;16.05;;
64387;SDS011;50709;52.648;4.764;2024-03-07T07:15:48;26.67;;;16.20;;
64387;SDS011;50709;52.648;4.764;2024-03-07T07:18:14;28.30;;;16.05;;
64387;SDS011;50709;52.648;4.764;2024-03-07T07:20:39;27.27;;;16.13;;
64387;SDS011;50709;52.648;4.764;2024-03-07T07:23:04;28.80;;;16.23;;
64387;SDS011;50709;52.648;4.764;2024-03-07T07:25:30;28.13;;;15.55;;
64387;SDS011;50709;52.648;4.764;2024-03-07T07:27:56;30.25;;;17.45;;
64387;SDS011;50709;52.648;4.764;2024-03-07T07:30:22;28.00;;;15.57;;
64387;SDS011;50709;52.648;4.764;2024-03-07T07:32:49;26.30;;;14.88;;
64387;SDS011;50709;52.648;4.764;2024-03-07T07:35:16;25.40;;;15.70;;
64387;SDS011;50709;52.648;4.764;2024-03-07T07:37:42;26.48;;;14.43;;
64387;SDS011;50709;52.648;4.764;2024-03-07T07:40:13;32.45;;;16.48;;
64387;SDS011;50709;52.648;4.764;2024-03-07T07:42:40;27.48;;;16.05;;
64387;SDS011;50709;52.648;4.764;2024-03-07T07:45:07;27.33;;;16.02;;
64387;SDS011;50709;52.648;4.764;2024-03-07T07:47:36;28.67;;;13.90;;
64387;SDS011;50709;52.648;4.764;2024-03-07T07:50:10;25.17;;;14.38;;
64387;SDS011;50709;52.648;4.764;2024-03-07T07:52:43;28.08;;;16.50;;
64387;SDS011;50709;52.648;4.764;2024-03-07T07:55:10;26.88;;;16.65;;
64387;SDS011;50709;52.648;4.764;2024-03-07T07:57:42;25.38;;;15.63;;
64387;SDS011;50709;52.648;4.764;2024-03-07T08:02:37;26.05;;;15.18;;
64387;SDS011;50709;52.648;4.764;2024-03-07T08:05:03;26.10;;;14.35;;
64387;SDS011;50709;52.648;4.764;2024-03-07T08:07:30;25.98;;;15.38;;
64387;SDS011;50709;52.648;4.764;2024-03-07T08:09:56;26.25;;;15.82;;
64387;SDS011;50709;52.648;4.764;2024-03-07T08:12:21;25.70;;;15.98;;
64387;SDS011;50709;52.648;4.764;2024-03-07T08:17:57;28.10;;;14.40;;
64387;SDS011;50709;52.648;4.764;2024-03-07T08:20:24;26.88;;;16.30;;
64387;SDS011;50709;52.648;4.764;2024-03-07T08:22:51;30.15;;;16.70;;
64387;SDS011;50709;52.648;4.764;2024-03-07T08:25:20;25.83;;;14.98;;
64387;SDS011;50709;52.648;4.764;2024-03-07T08:27:48;21.40;;;13.05;;
64387;SDS011;50709;52.648;4.764;2024-03-07T08:30:15;24.60;;;14.68;;
64387;SDS011;50709;52.648;4.764;2024-03-07T08:32:41;23.98;;;12.57;;
64387;SDS011;50709;52.648;4.764;2024-03-07T08:35:09;22.00;;;12.80;;
64387;SDS011;50709;52.648;4.764;2024-03-07T08:37:44;25.33;;;14.07;;
64387;SDS011;50709;52.648;4.764;2024-03-07T08:40:11;21.52;;;13.38;;
64387;SDS011;50709;52.648;4.764;2024-03-07T08:42:44;22.42;;;12.15;;
64387;SDS011;50709;52.648;4.764;2024-03-07T08:45:11;22.27;;;12.10;;
64387;SDS011;50709;52.648;4.764;2024-03-07T08:47:36;19.75;;;11.05;;
64387;SDS011;50709;52.648;4.764;2024-03-07T08:50:03;20.23;;;12.43;;
64387;SDS011;50709;52.648;4.764;2024-03-07T08:52:36;22.70;;;12.23;;
64387;SDS011;50709;52.648;4.764;2024-03-07T08:55:03;24.30;;;15.07;;
64387;SDS011;50709;52.648;4.764;2024-03-07T08:57:29;24.85;;;14.52;;
64387;SDS011;50709;52.648;4.764;2024-03-07T08:59:55;20.33;;;12.38;;
64387;SDS011;50709;52.648;4.764;2024-03-07T09:02:21;20.95;;;13.10;;
64387;SDS011;50709;52.648;4.764;2024-03-07T09:04:46;19.50;;;11.02;;
64387;SDS011;50709;52.648;4.764;2024-03-07T09:07:11;19.35;;;11.52;;
64387;SDS011;50709;52.648;4.764;2024-03-07T09:09:39;20.75;;;12.00;;
64387;SDS011;50709;52.648;4.764;2024-03-07T09:12:05;21.02;;;12.27;;
64387;SDS011;50709;52.648;4.764;2024-03-07T09:14:32;22.27;;;11.95;;
64387;SDS011;50709;52.648;4.764;2024-03-07T09:16:57;18.10;;;10.20;;
64387;SDS011;50709;52.648;4.764;2024-03-07T09:19:23;19.67;;;11.82;;
64387;SDS011;50709;52.648;4.764;2024-03-07T09:21:52;20.15;;;11.07;;
64387;SDS011;50709;52.648;4.764;2024-03-07T09:24:18;23.45;;;14.20;;
64387;SDS011;50709;52.648;4.764;2024-03-07T09:26:50;18.50;;;10.95;;
64387;SDS011;50709;52.648;4.764;2024-03-07T09:29:17;19.98;;;12.18;;
64387;SDS011;50709;52.648;4.764;2024-03-07T09:31:43;19.42;;;12.52;;
64387;SDS011;50709;52.648;4.764;2024-03-07T09:34:09;23.00;;;13.27;;
64387;SDS011;50709;52.648;4.764;2024-03-07T09:36:35;19.25;;;12.10;;
64387;SDS011;50709;52.648;4.764;2024-03-07T09:39:00;19.88;;;11.25;;
64387;SDS011;50709;52.648;4.764;2024-03-07T09:41:26;19.23;;;12.10;;
64387;SDS011;50709;52.648;4.764;2024-03-07T09:43:52;19.73;;;11.40;;
64387;SDS011;50709;52.648;4.764;2024-03-07T09:46:23;20.05;;;11.98;;
64387;SDS011;50709;52.648;4.764;2024-03-07T09:48:49;21.20;;;12.50;;
64387;SDS011;50709;52.648;4.764;2024-03-07T09:51:22;20.63;;;12.82;;
64387;SDS011;50709;52.648;4.764;2024-03-07T09:53:52;21.02;;;11.00;;
64387;SDS011;50709;52.648;4.764;2024-03-07T09:56:21;20.48;;;13.52;;
64387;SDS011;50709;52.648;4.764;2024-03-07T09:58:50;20.42;;;11.57;;
64387;SDS011;50709;52.648;4.764;2024-03-07T10:01:22;15.02;;;8.95;;
64387;SDS011;50709;52.648;4.764;2024-03-07T10:03:52;19.08;;;11.32;;
64387;SDS011;50709;52.648;4.764;2024-03-07T10:06:22;21.48;;;12.02;;
64387;SDS011;50709;52.648;4.764;2024-03-07T10:08:48;21.10;;;13.35;;
64387;SDS011;50709;52.648;4.764;2024-03-07T10:11:15;21.38;;;12.00;;
64387;SDS011;50709;52.648;4.764;2024-03-07T10:13:41;22.25;;;13.95;;
64387;SDS011;50709;52.648;4.764;2024-03-07T10:16:07;19.50;;;11.13;;
64387;SDS011;50709;52.648;4.764;2024-03-07T10:18:33;16.20;;;10.57;;
64387;SDS011;50709;52.648;4.764;2024-03-07T10:21:07;18.90;;;13.85;;
64387;SDS011;50709;52.648;4.764;2024-03-07T10:23:32;21.58;;;14.90;;
64387;SDS011;50709;52.648;4.764;2024-03-07T10:25:59;19.10;;;11.88;;
64387;SDS011;50709;52.648;4.764;2024-03-07T10:28:26;19.35;;;12.60;;
64387;SDS011;50709;52.648;4.764;2024-03-07T10:30:56;18.67;;;12.75;;
64387;SDS011;50709;52.648;4.764;2024-03-07T10:33:21;15.35;;;9.75;;
64387;SDS011;50709;52.648;4.764;2024-03-07T10:35:52;16.88;;;11.43;;
64387;SDS011;50709;52.648;4.764;2024-03-07T10:38:18;20.48;;;13.25;;
64387;SDS011;50709;52.648;4.764;2024-03-07T10:40:45;19.95;;;12.35;;
64387;SDS011;50709;52.648;4.764;2024-03-07T10:43:18;16.65;;;10.60;;
64387;SDS011;50709;52.648;4.764;2024-03-07T10:45:47;16.77;;;10.43;;
64387;SDS011;50709;52.648;4.764;2024-03-07T10:48:16;15.32;;;10.02;;
64387;SDS011;50709;52.648;4.764;2024-03-07T10:53:24;16.58;;;10.35;;
64387;SDS011;50709;52.648;4.764;2024-03-07T11:01:20;18.08;;;11.55;;
64387;SDS011;50709;52.648;4.764;2024-03-07T11:03:49;17.58;;;11.73;;
64387;SDS011;50709;52.648;4.764;2024-03-07T11:06:17;16.38;;;9.60;;
64387;SDS011;50709;52.648;4.764;2024-03-07T11:08:43;15.52;;;10.40;;
64387;SDS011;50709;52.648;4.764;2024-03-07T11:11:10;15.02;;;10.02;;
64387;SDS011;50709;52.648;4.764;2024-03-07T11:13:37;15.93;;;9.40;;
64387;SDS011;50709;52.648;4.764;2024-03-07T11:16:04;17.52;;;11.80;;
64387;SDS011;50709;52.648;4.764;2024-03-07T11:18:31;19.08;;;11.10;;
64387;SDS011;50709;52.648;4.764;2024-03-07T11:20:56;17.95;;;11.20;;
64387;SDS011;50709;52.648;4.764;2024-03-07T11:23:32;18.15;;;10.52;;
64387;SDS011;50709;52.648;4.764;2024-03-07T11:26:04;18.42;;;10.05;;
64387;SDS011;50709;52.648;4.764;2024-03-07T11:28:34;19.27;;;11.48;;
64387;SDS011;50709;52.648;4.764;2024-03-07T11:31:26;16.35;;;10.25;;
64387;SDS011;50709;52.648;4.764;2024-03-07T11:36:46;21.50;;;12.05;;
64387;SDS011;50709;52.648;4.764;2024-03-07T11:42:06;20.70;;;11.98;;
64387;SDS011;50709;52.648;4.764;2024-03-07T11:44:32;19.40;;;10.93;;
64387;SDS011;50709;52.648;4.764;2024-03-07T11:47:00;20.23;;;11.60;;
64387;SDS011;50709;52.648;4.764;2024-03-07T11:49:34;19.05;;;11.65;;
64387;SDS011;50709;52.648;4.764;2024-03-07T11:52:01;22.95;;;13.20;;
64387;SDS011;50709;52.648;4.764;2024-03-07T11:54:36;19.73;;;11.02;;
64387;SDS011;50709;52.648;4.764;2024-03-07T11:57:05;19.40;;;13.00;;
64387;SDS011;50709;52.648;4.764;2024-03-07T11:59:38;20.92;;;11.25;;
64387;SDS011;50709;52.648;4.764;2024-03-07T12:02:05;18.90;;;11.38;;
64387;SDS011;50709;52.648;4.764;2024-03-07T12:04:30;20.92;;;12.63;;
64387;SDS011;50709;52.648;4.764;2024-03-07T12:06:59;20.63;;;12.32;;
64387;SDS011;50709;52.648;4.764;2024-03-07T12:09:25;21.88;;;13.05;;
64387;SDS011;50709;52.648;4.764;2024-03-07T12:11:51;17.90;;;10.70;;
64387;SDS011;50709;52.648;4.764;2024-03-07T12:14:20;18.50;;;11.10;;
64387;SDS011;50709;52.648;4.764;2024-03-07T12:16:46;20.27;;;12.60;;
64387;SDS011;50709;52.648;4.764;2024-03-07T12:19:12;22.38;;;13.52;;
64387;SDS011;50709;52.648;4.764;2024-03-07T12:21:42;26.05;;;14.63;;
64387;SDS011;50709;52.648;4.764;2024-03-07T12:24:12;24.10;;;14.20;;
64387;SDS011;50709;52.648;4.764;2024-03-07T12:26:38;22.17;;;13.50;;
64387;SDS011;50709;52.648;4.764;2024-03-07T12:29:07;24.15;;;14.65;;
64387;SDS011;50709;52.648;4.764;2024-03-07T12:31:41;23.75;;;13.05;;
64387;SDS011;50709;52.648;4.764;2024-03-07T12:34:07;22.45;;;14.50;;
64387;SDS011;50709;52.648;4.764;2024-03-07T12:36:36;21.33;;;13.38;;
64387;SDS011;50709;52.648;4.764;2024-03-07T12:39:21;24.50;;;14.05;;
64387;SDS011;50709;52.648;4.764;2024-03-07T12:41:50;19.88;;;11.32;;
64387;SDS011;50709;52.648;4.764;2024-03-07T12:44:18;24.90;;;14.15;;
64387;SDS011;50709;52.648;4.764;2024-03-07T12:46:47;23.17;;;14.48;;
64387;SDS011;50709;52.648;4.764;2024-03-07T12:49:16;23.15;;;15.73;;
64387;SDS011;50709;52.648;4.764;2024-03-07T12:51:42;23.98;;;13.60;;
64387;SDS011;50709;52.648;4.764;2024-03-07T12:54:08;25.20;;;15.13;;
64387;SDS011;50709;52.648;4.764;2024-03-07T12:56:37;25.17;;;14.40;;
64387;SDS011;50709;52.648;4.764;2024-03-07T12:59:04;22.65;;;14.98;;
64387;SDS011;50709;52.648;4.764;2024-03-07T13:01:30;28.20;;;17.55;;
64387;SDS011;50709;52.648;4.764;2024-03-07T13:03:58;24.95;;;14.85;;
64387;SDS011;50709;52.648;4.764;2024-03-07T13:06:24;22.23;;;13.35;;
64387;SDS011;50709;52.648;4.764;2024-03-07T13:08:54;26.13;;;14.45;;
64387;SDS011;50709;52.648;4.764;2024-03-07T13:11:24;23.70;;;15.55;;
64387;SDS011;50709;52.648;4.764;2024-03-07T13:13:52;25.60;;;15.55;;
64387;SDS011;50709;52.648;4.764;2024-03-07T13:16:18;25.48;;;15.00;;
64387;SDS011;50709;52.648;4.764;2024-03-07T13:18:44;27.33;;;17.23;;
64387;SDS011;50709;52.648;4.764;2024-03-07T13:21:11;20.75;;;12.52;;
64387;SDS011;50709;52.648;4.764;2024-03-07T13:23:42;23.35;;;12.68;;
64387;SDS011;50709;52.648;4.764;2024-03-07T13:26:08;28.42;;;15.88;;
64387;SDS011;50709;52.648;4.764;2024-03-07T13:28:41;25.35;;;14.63;;
64387;SDS011;50709;52.648;4.764;2024-03-07T13:31:10;23.98;;;15.32;;
64387;SDS011;50709;52.648;4.764;2024-03-07T13:33:42;19.80;;;12.13;;
64387;SDS011;50709;52.648;4.764;2024-03-07T13:36:08;21.65;;;12.75;;
64387;SDS011;50709;52.648;4.764;2024-03-07T13:38:33;25.85;;;16.25;;
64387;SDS011;50709;52.648;4.764;2024-03-07T13:41:00;28.02;;;17.17;;
64387;SDS011;50709;52.648;4.764;2024-03-07T13:43:29;24.65;;;13.60;;
64387;SDS011;50709;52.648;4.764;2024-03-07T13:45:55;27.70;;;15.75;;
64387;SDS011;50709;52.648;4.764;2024-03-07T13:48:21;23.35;;;14.57;;
64387;SDS011;50709;52.648;4.764;2024-03-07T13:50:47;21.75;;;11.00;;
64387;SDS011;50709;52.648;4.764;2024-03-07T13:53:17;26.40;;;18.02;;
64387;SDS011;50709;52.648;4.764;2024-03-07T13:58:36;26.13;;;15.82;;
64387;SDS011;50709;52.648;4.764;2024-03-07T14:12:16;22.35;;;11.70;;
64387;SDS011;50709;52.648;4.764;2024-03-07T14:26:50;22.75;;;11.95;;
64387;SDS011;50709;52.648;4.764;2024-03-07T14:32:34;25.17;;;15.13;;
64387;SDS011;50709;52.648;4.764;2024-03-07T14:35:12;23.92;;;13.80;;
64387;SDS011;50709;52.648;4.764;2024-03-07T14:37:52;25.08;;;14.88;;
64387;SDS011;50709;52.648;4.764;2024-03-07T14:40:21;24.02;;;13.35;;
64387;SDS011;50709;52.648;4.764;2024-03-07T14:42:47;20.05;;;11.93;;
64387;SDS011;50709;52.648;4.764;2024-03-07T14:45:21;20.80;;;11.73;;
64387;SDS011;50709;52.648;4.764;2024-03-07T14:47:48;25.10;;;13.57;;
64387;SDS011;50709;52.648;4.764;2024-03-07T14:50:17;23.05;;;11.77;;
64387;SDS011;50709;52.648;4.764;2024-03-07T14:52:45;20.67;;;11.02;;
64387;SDS011;50709;52.648;4.764;2024-03-07T14:55:11;18.13;;;10.57;;
64387;SDS011;50709;52.648;4.764;2024-03-07T14:57:40;20.27;;;11.82;;
64387;SDS011;50709;52.648;4.764;2024-03-07T15:00:06;19.55;;;11.23;;
64387;SDS011;50709;52.648;4.764;2024-03-07T15:02:43;20.20;;;13.73;;
64387;SDS011;50709;52.648;4.764;2024-03-07T15:05:10;21.02;;;12.60;;
64387;SDS011;50709;52.648;4.764;2024-03-07T15:07:36;22.55;;;13.38;;
64387;SDS011;50709;52.648;4.764;2024-03-07T15:10:02;18.80;;;11.75;;
64387;SDS011;50709;52.648;4.764;2024-03-07T15:12:31;21.02;;;12.82;;
64387;SDS011;50709;52.648;4.764;2024-03-07T15:14:56;21.00;;;11.43;;
64387;SDS011;50709;52.648;4.764;2024-03-07T15:17:22;20.38;;;11.02;;